Time;durP1;ratioP1;P1;durP2;ratioP2;P2;SDS_P1;SDS_P2;PMS_P1;PMS_P2;Temp;Humidity;BMP_temperature;BMP_pressure;BME280_temperature;BME280_humidity;BME280_pressure;Samples;Min_cycle;Max_cycle;Signal;HPM_P1;HPM_P2
2023/09/08 00:00:09;;;;;;;;;;;16.90;99.90;;;;;;5052038;28;19927;-74
2023/09/08 00:02:35;;;;;;;;;;;16.90;99.90;;;;;;5043984;28;19928;-74
2023/09/08 00:05:02;;;;;;;;;;;16.80;99.90;;;;;;5043473;28;20231;-74
2023/09/08 00:07:30;;;;;;;;;;;16.80;99.90;;;;;;5028018;28;20209;-74
2023/09/08 00:09:56;;;;;;;;;;;16.70;99.90;;;;;;5023288;28;19952;-74
2023/09/08 00:12:25;;;;;;;;;;;16.70;99.90;;;;;;5021041;28;19921;-74
2023/09/08 00:14:54;;;;;;;;;;;16.70;99.90;;;;;;5021670;28;20000;-74
2023/09/08 00:17:21;;;;;;;;;;;16.60;99.90;;;;;;5023694;28;19922;-73
2023/09/08 00:19:47;;;;;;;;;;;16.60;99.90;;;;;;5023230;28;19988;-73
2023/09/08 00:31:32;;;;;;;;;;;16.50;99.90;;;;;;4925285;29;19998;-74
2023/09/08 00:34:28;;;;;;;;;;;16.40;99.90;;;;;;4925302;29;19955;-73
2023/09/08 00:39:57;;;;;;;;;;;16.30;99.90;;;;;;4924638;29;19917;-74
2023/09/08 00:42:25;;;;;;;;;;;16.30;99.90;;;;;;4922960;29;19986;-74
2023/09/08 00:44:52;;;;;;;;;;;16.20;99.90;;;;;;4961291;28;19989;-74
2023/09/08 00:47:20;;;;;;;;;;;16.20;99.90;;;;;;5019829;28;20145;-74
2023/09/08 00:49:47;;;;;;;;;;;16.20;99.90;;;;;;5022715;28;19993;-74
2023/09/08 00:52:33;;;;;;;;;;;16.20;99.90;;;;;;5021216;28;19953;-74
2023/09/08 00:55:01;;;;;;;;;;;16.10;99.90;;;;;;5022698;28;19972;-73
2023/09/08 00:57:28;;;;;;;;;;;16.00;99.90;;;;;;5023353;28;19992;-74
2023/09/08 00:59:54;;;;;;;;;;;16.00;99.90;;;;;;5023102;28;19993;-74
2023/09/08 01:02:23;;;;;;;;;;;16.00;99.90;;;;;;5023748;28;19989;-73
2023/09/08 01:05:03;;;;;;;;;;;16.00;99.90;;;;;;5020883;28;19921;-74
2023/09/08 01:07:30;;;;;;;;;;;15.90;99.90;;;;;;5026117;28;20297;-74
2023/09/08 01:09:57;;;;;;;;;;;16.00;99.90;;;;;;5026631;28;19988;-74
2023/09/08 01:12:24;;;;;;;;;;;15.80;99.90;;;;;;5027203;28;19993;-74
2023/09/08 01:15:05;;;;;;;;;;;15.70;99.90;;;;;;5024329;28;19928;-74
2023/09/08 01:17:34;;;;;;;;;;;15.70;99.90;;;;;;5026905;28;19953;-74
2023/09/08 01:20:03;;;;;;;;;;;15.60;99.90;;;;;;5026277;28;19921;-74
2023/09/08 01:22:44;;;;;;;;;;;15.60;99.90;;;;;;5027001;28;19959;-73
2023/09/08 01:25:16;;;;;;;;;;;15.50;99.90;;;;;;5023221;28;19988;-74
2023/09/08 01:27:49;;;;;;;;;;;15.50;99.90;;;;;;5026828;28;20102;-74
2023/09/08 01:30:25;;;;;;;;;;;15.50;99.90;;;;;;5025928;28;19974;-74
2023/09/08 01:32:51;;;;;;;;;;;15.50;99.90;;;;;;5026983;28;19960;-74
2023/09/08 01:35:18;;;;;;;;;;;15.50;99.90;;;;;;5026666;28;19984;-74
2023/09/08 01:37:45;;;;;;;;;;;15.40;99.90;;;;;;5026666;28;20168;-74
2023/09/08 01:40:12;;;;;;;;;;;15.40;99.90;;;;;;5026017;28;19993;-73
2023/09/08 01:42:51;;;;;;;;;;;15.40;99.90;;;;;;5026618;28;20004;-74
2023/09/08 01:48:56;;;;;;;;;;;15.30;99.90;;;;;;4816061;29;19929;-74
2023/09/08 01:51:22;;;;;;;;;;;15.20;99.90;;;;;;4876268;29;19924;-73
2023/09/08 01:53:51;;;;;;;;;;;15.20;99.90;;;;;;5000292;28;19964;-74
2023/09/08 01:56:27;;;;;;;;;;;15.10;99.90;;;;;;5025818;28;19983;-74
2023/09/08 01:58:55;;;;;;;;;;;15.10;99.90;;;;;;5025319;28;19928;-73
2023/09/08 02:01:22;;;;;;;;;;;15.10;99.90;;;;;;5026297;28;19984;-74
2023/09/08 02:12:58;;;;;;;;;;;15.00;99.90;;;;;;4889856;29;19984;-74
2023/09/08 02:15:26;;;;;;;;;;;14.90;99.90;;;;;;4939320;28;19984;-74
2023/09/08 02:23:59;;;;;;;;;;;14.90;99.90;;;;;;5025790;28;19952;-74
2023/09/08 02:29:07;;;;;;;;;;;14.80;99.90;;;;;;5018347;28;19977;-73
2023/09/08 02:31:35;;;;;;;;;;;14.80;99.90;;;;;;5025739;28;19922;-74
2023/09/08 02:34:01;;;;;;;;;;;14.80;99.90;;;;;;5025485;28;19922;-73
2023/09/08 02:36:28;;;;;;;;;;;14.80;99.90;;;;;;5025232;28;19984;-74
2023/09/08 02:39:30;;;;;;;;;;;14.70;99.90;;;;;;5024922;28;19984;-74
2023/09/08 02:45:00;;;;;;;;;;;14.60;99.90;;;;;;4984281;28;19981;-75
2023/09/08 02:47:28;;;;;;;;;;;14.50;99.90;;;;;;4984265;28;19953;-74
2023/09/08 02:49:54;;;;;;;;;;;14.50;99.90;;;;;;5022364;28;20157;-74
2023/09/08 02:52:21;;;;;;;;;;;14.50;99.90;;;;;;5025264;28;19960;-74
2023/09/08 02:54:51;;;;;;;;;;;14.50;99.90;;;;;;5025179;28;19929;-73
2023/09/08 02:57:17;;;;;;;;;;;14.50;99.90;;;;;;5025164;28;19984;-75
2023/09/08 03:02:48;;;;;;;;;;;14.40;99.90;;;;;;5015959;28;19956;-74
2023/09/08 03:05:15;;;;;;;;;;;14.30;99.90;;;;;;5023557;28;19984;-74
2023/09/08 03:07:41;;;;;;;;;;;14.30;99.90;;;;;;5024803;28;19929;-74
2023/09/08 03:10:09;;;;;;;;;;;14.30;99.90;;;;;;5024566;28;19928;-74
2023/09/08 03:12:35;;;;;;;;;;;14.30;99.90;;;;;;5024913;28;19921;-73
2023/09/08 03:15:10;;;;;;;;;;;14.30;99.90;;;;;;5022315;28;19921;-73
2023/09/08 03:17:38;;;;;;;;;;;14.20;99.90;;;;;;5024133;28;20416;-74
2023/09/08 03:20:08;;;;;;;;;;;14.20;99.90;;;;;;5024262;28;19995;-74
2023/09/08 03:22:34;;;;;;;;;;;14.20;99.90;;;;;;5024873;28;20189;-74
2023/09/08 03:25:01;;;;;;;;;;;14.20;99.90;;;;;;5024729;28;19959;-74
2023/09/08 03:27:28;;;;;;;;;;;14.10;99.90;;;;;;5024411;28;20127;-74
2023/09/08 03:29:56;;;;;;;;;;;14.10;99.90;;;;;;5023777;28;19989;-74
2023/09/08 03:32:25;;;;;;;;;;;14.10;99.90;;;;;;5024666;28;19922;-73
2023/09/08 03:34:51;;;;;;;;;;;14.10;99.90;;;;;;5024378;28;19928;-73
2023/09/08 03:37:19;;;;;;;;;;;14.10;99.90;;;;;;5024383;28;19925;-74
2023/09/08 03:39:46;;;;;;;;;;;14.00;99.90;;;;;;5024040;28;20175;-74
2023/09/08 03:42:13;;;;;;;;;;;14.00;99.90;;;;;;5024564;28;19922;-73
2023/09/08 03:44:39;;;;;;;;;;;13.90;99.90;;;;;;5024442;28;19921;-74
2023/09/08 03:47:06;;;;;;;;;;;13.90;99.90;;;;;;5024562;28;20009;-74
2023/09/08 03:49:33;;;;;;;;;;;13.90;99.90;;;;;;5044961;28;19921;-73
2023/09/08 03:52:00;;;;;;;;;;;13.80;99.90;;;;;;5064080;28;19921;-74
2023/09/08 03:57:31;;;;;;;;;;;13.80;99.90;;;;;;5063812;28;20143;-74
2023/09/08 03:59:58;;;;;;;;;;;13.70;99.90;;;;;;5063320;28;20223;-73
2023/09/08 04:02:24;;;;;;;;;;;13.70;99.90;;;;;;5063659;28;19944;-74
2023/09/08 04:04:51;;;;;;;;;;;13.70;99.90;;;;;;5061046;28;20267;-73
2023/09/08 04:07:18;;;;;;;;;;;13.70;99.90;;;;;;5063873;28;19956;-74
2023/09/08 04:09:44;;;;;;;;;;;13.70;99.90;;;;;;5062949;28;19920;-74
2023/09/08 04:12:11;;;;;;;;;;;13.60;99.90;;;;;;5063880;28;19921;-73
2023/09/08 04:14:40;;;;;;;;;;;13.60;99.90;;;;;;5061182;28;19988;-74
2023/09/08 04:17:08;;;;;;;;;;;13.60;99.90;;;;;;5063437;28;19962;-74
2023/09/08 04:19:34;;;;;;;;;;;13.60;99.90;;;;;;5063217;28;19959;-74
2023/09/08 04:22:06;;;;;;;;;;;13.50;99.90;;;;;;5063875;28;19920;-74
2023/09/08 04:24:35;;;;;;;;;;;13.50;99.90;;;;;;5063074;28;20001;-74
2023/09/08 04:27:02;;;;;;;;;;;13.50;99.90;;;;;;5063588;28;19983;-74
2023/09/08 04:29:28;;;;;;;;;;;13.50;99.90;;;;;;5062882;28;20208;-74
2023/09/08 04:31:56;;;;;;;;;;;13.40;99.90;;;;;;5063669;28;19927;-74
2023/09/08 04:34:23;;;;;;;;;;;13.40;99.90;;;;;;5063599;28;19984;-74
2023/09/08 04:37:00;;;;;;;;;;;13.40;99.90;;;;;;5063118;28;20275;-73
2023/09/08 04:39:27;;;;;;;;;;;13.30;99.90;;;;;;5062930;28;19927;-74
2023/09/08 04:41:54;;;;;;;;;;;13.30;99.90;;;;;;5065246;28;19984;-74
2023/09/08 04:44:20;;;;;;;;;;;13.30;99.90;;;;;;5067481;28;19920;-73
2023/09/08 04:46:51;;;;;;;;;;;13.30;99.90;;;;;;5067352;28;19927;-74
2023/09/08 04:49:19;;;;;;;;;;;13.20;99.90;;;;;;5057281;28;19921;-74
2023/09/08 04:51:45;;;;;;;;;;;13.20;99.90;;;;;;5046953;28;19964;-74
2023/09/08 04:54:12;;;;;;;;;;;13.20;99.90;;;;;;5047250;28;19960;-74
2023/09/08 04:56:39;;;;;;;;;;;13.20;99.90;;;;;;5046951;28;19988;-74
2023/09/08 04:59:05;;;;;;;;;;;13.20;99.90;;;;;;5046560;28;20176;-73
2023/09/08 05:01:32;;;;;;;;;;;13.10;99.90;;;;;;5046911;28;19928;-73
2023/09/08 05:04:00;;;;;;;;;;;13.10;99.90;;;;;;5047020;28;19921;-72
2023/09/08 05:06:28;;;;;;;;;;;13.10;99.90;;;;;;5046334;28;19928;-72
2023/09/08 05:11:59;;;;;;;;;;;13.00;99.90;;;;;;5046672;28;19919;-72
2023/09/08 05:14:27;;;;;;;;;;;12.90;99.90;;;;;;5044714;28;20148;-72
2023/09/08 05:20:15;;;;;;;;;;;12.90;99.90;;;;;;5046024;28;19975;-74
2023/09/08 05:22:43;;;;;;;;;;;12.90;99.90;;;;;;5046692;28;19952;-74
2023/09/08 05:27:51;;;;;;;;;;;12.90;99.90;;;;;;5046396;28;19980;-75
2023/09/08 05:33:14;;;;;;;;;;;12.90;99.90;;;;;;5023843;28;19921;-76
2023/09/08 05:35:40;;;;;;;;;;;12.80;99.90;;;;;;5046560;28;19921;-73
2023/09/08 05:38:11;;;;;;;;;;;12.90;99.90;;;;;;5045942;28;19988;-75
2023/09/08 05:40:38;;;;;;;;;;;12.90;99.90;;;;;;5045041;28;19963;-75
2023/09/08 05:43:05;;;;;;;;;;;12.90;99.90;;;;;;5046469;28;19925;-75
2023/09/08 05:45:32;;;;;;;;;;;13.00;99.90;;;;;;5046188;28;19957;-74
2023/09/08 05:47:59;;;;;;;;;;;13.00;99.90;;;;;;5044265;28;20177;-74
2023/09/08 05:50:25;;;;;;;;;;;13.00;99.90;;;;;;5044854;28;19985;-74
2023/09/08 05:52:52;;;;;;;;;;;13.00;99.90;;;;;;5045424;28;20212;-75
2023/09/08 05:55:20;;;;;;;;;;;13.10;99.90;;;;;;5046028;28;19952;-75
2023/09/08 05:57:47;;;;;;;;;;;13.10;99.90;;;;;;5045682;28;20144;-75
2023/09/08 06:00:14;;;;;;;;;;;13.10;99.90;;;;;;5045504;28;19927;-73
2023/09/08 06:03:17;;;;;;;;;;;13.20;99.90;;;;;;5058295;23;19960;-73
2023/09/08 06:05:58;;;;;;;;;;;13.20;99.90;;;;;;5044880;28;19949;-70
2023/09/08 06:08:25;;;;;;;;;;;13.20;99.90;;;;;;5045608;28;20000;-70
2023/09/08 06:10:53;;;;;;;;;;;13.30;99.90;;;;;;5045251;28;20231;-70
2023/09/08 06:16:24;;;;;;;;;;;13.40;99.90;;;;;;5022492;28;19916;-70
2023/09/08 06:18:57;;;;;;;;;;;13.40;99.90;;;;;;5025359;28;19921;-70
2023/09/08 06:24:27;;;;;;;;;;;13.50;99.90;;;;;;5025698;28;19916;-71
2023/09/08 06:26:55;;;;;;;;;;;13.60;99.90;;;;;;5025818;28;19922;-70
2023/09/08 06:32:26;;;;;;;;;;;13.60;99.90;;;;;;5011802;28;19968;-70
2023/09/08 06:34:52;;;;;;;;;;;13.70;99.90;;;;;;5027116;28;19952;-70
2023/09/08 06:37:19;;;;;;;;;;;13.80;99.90;;;;;;5028102;28;19928;-70
2023/09/08 06:39:51;;;;;;;;;;;13.90;99.90;;;;;;5022156;28;20124;-70
2023/09/08 06:45:24;;;;;;;;;;;14.00;99.90;;;;;;4958467;28;19949;-70
2023/09/08 06:51:00;;;;;;;;;;;14.30;99.90;;;;;;5000370;28;19922;-70
2023/09/08 06:53:27;;;;;;;;;;;14.50;99.90;;;;;;5005582;28;20078;-70
2023/09/08 07:04:57;;;;;;;;;;;15.10;99.90;;;;;;4961631;28;20181;-69
2023/09/08 07:07:24;;;;;;;;;;;15.30;99.90;;;;;;4999193;28;19960;-70
2023/09/08 07:09:50;;;;;;;;;;;15.40;99.90;;;;;;5004015;28;20171;-70
2023/09/08 07:12:17;;;;;;;;;;;15.50;99.90;;;;;;5005031;28;20030;-70
2023/09/08 07:14:55;;;;;;;;;;;15.60;99.90;;;;;;5002119;28;20120;-71
2023/09/08 07:17:23;;;;;;;;;;;15.70;99.90;;;;;;5005240;28;19976;-71
2023/09/08 07:19:50;;;;;;;;;;;15.90;99.90;;;;;;5004398;28;20002;-71
2023/09/08 07:22:16;;;;;;;;;;;16.00;99.90;;;;;;5004965;28;19976;-71
2023/09/08 07:24:44;;;;;;;;;;;16.20;99.90;;;;;;5004892;28;19985;-71
2023/09/08 07:27:13;;;;;;;;;;;16.30;99.90;;;;;;5004711;28;19925;-69
2023/09/08 07:29:40;;;;;;;;;;;16.40;99.90;;;;;;5004126;28;19921;-70
2023/09/08 07:32:07;;;;;;;;;;;16.60;99.90;;;;;;5007392;28;20022;-71
2023/09/08 07:34:35;;;;;;;;;;;16.70;99.90;;;;;;5024407;28;19980;-70
2023/09/08 07:37:08;;;;;;;;;;;16.90;99.90;;;;;;5024174;28;20284;-71
2023/09/08 07:39:35;;;;;;;;;;;17.00;99.90;;;;;;5023772;28;20001;-71
2023/09/08 07:42:18;;;;;;;;;;;17.20;99.90;;;;;;5024073;28;20209;-70
2023/09/08 07:48:03;;;;;;;;;;;17.50;99.90;;;;;;4944500;29;19925;-70
2023/09/08 07:50:33;;;;;;;;;;;17.70;99.90;;;;;;4943696;29;19993;-70
2023/09/08 07:56:29;;;;;;;;;;;18.00;99.90;;;;;;4942274;29;19940;-70
2023/09/08 07:58:56;;;;;;;;;;;18.10;99.90;;;;;;4950386;28;20109;-71
2023/09/08 08:01:22;;;;;;;;;;;18.20;99.90;;;;;;5012734;28;19984;-70
2023/09/08 08:06:53;;;;;;;;;;;18.40;99.90;;;;;;5023811;28;19978;-70
2023/09/08 08:09:20;;;;;;;;;;;18.60;99.90;;;;;;5023363;28;19985;-70
2023/09/08 08:17:31;;;;;;;;;;;19.10;99.90;;;;;;5022919;28;20353;-71
2023/09/08 08:19:58;;;;;;;;;;;19.30;99.90;;;;;;5029594;28;20128;-70
2023/09/08 08:28:31;;;;;;;;;;;19.40;99.90;;;;;;5007173;28;19963;-70
2023/09/08 08:30:58;;;;;;;;;;;19.50;99.90;;;;;;5030075;28;20017;-71
2023/09/08 08:33:47;;;;;;;;;;;19.60;99.90;;;;;;5031065;28;20157;-71
2023/09/08 08:48:28;;;;;;;;;;;19.90;99.90;;;;;;5029832;28;19955;-70
2023/09/08 08:50:55;;;;;;;;;;;19.90;99.90;;;;;;5029645;28;19957;-71
2023/09/08 08:53:21;;;;;;;;;;;20.00;99.90;;;;;;5029734;28;19944;-71
2023/09/08 08:55:50;;;;;;;;;;;20.00;99.90;;;;;;5030023;28;19922;-71
2023/09/08 08:58:18;;;;;;;;;;;20.10;99.90;;;;;;5041181;28;19956;-71
2023/09/08 09:00:45;;;;;;;;;;;20.30;99.90;;;;;;5034623;28;19980;-71
2023/09/08 09:03:12;;;;;;;;;;;20.40;99.90;;;;;;5049379;28;20212;-70
2023/09/08 09:05:42;;;;;;;;;;;20.50;99.90;;;;;;5038866;28;19985;-71
2023/09/08 09:08:09;;;;;;;;;;;20.60;99.90;;;;;;5029766;28;19984;-71
2023/09/08 09:10:35;;;;;;;;;;;20.70;99.90;;;;;;5029292;28;20148;-71
2023/09/08 09:13:01;;;;;;;;;;;20.80;99.90;;;;;;5030787;28;19925;-71
2023/09/08 09:15:33;;;;;;;;;;;20.90;99.90;;;;;;5047121;28;19983;-71
2023/09/08 09:18:03;;;;;;;;;;;21.00;99.90;;;;;;5049747;28;19921;-70
2023/09/08 09:20:29;;;;;;;;;;;21.00;99.90;;;;;;5048769;28;19925;-71
2023/09/08 09:22:57;;;;;;;;;;;21.10;99.90;;;;;;5049648;28;19921;-70
2023/09/08 09:25:24;;;;;;;;;;;21.10;99.90;;;;;;5049565;28;19981;-71
2023/09/08 09:27:52;;;;;;;;;;;21.10;99.90;;;;;;5046777;28;20309;-71
2023/09/08 09:30:19;;;;;;;;;;;21.20;99.90;;;;;;5042984;28;19981;-71
2023/09/08 09:32:45;;;;;;;;;;;21.20;99.90;;;;;;5026535;28;19945;-71
2023/09/08 09:35:12;;;;;;;;;;;21.30;99.90;;;;;;5026461;28;19928;-71
2023/09/08 09:37:41;;;;;;;;;;;21.50;99.90;;;;;;5026571;28;20001;-71
2023/09/08 09:40:11;;;;;;;;;;;21.60;99.90;;;;;;5025857;28;19980;-70
2023/09/08 09:42:38;;;;;;;;;;;21.70;99.90;;;;;;5026475;28;20249;-71
2023/09/08 09:45:06;;;;;;;;;;;21.80;99.90;;;;;;5026397;28;20178;-71
2023/09/08 09:47:32;;;;;;;;;;;21.90;99.90;;;;;;5026261;28;19988;-71
2023/09/08 09:49:59;;;;;;;;;;;22.00;99.90;;;;;;5025872;28;19921;-71
2023/09/08 09:52:27;;;;;;;;;;;22.10;99.90;;;;;;5026165;28;19993;-71
2023/09/08 09:54:54;;;;;;;;;;;22.20;99.90;;;;;;5026194;28;19964;-70
2023/09/08 09:57:23;;;;;;;;;;;22.30;99.90;;;;;;5025859;28;20217;-71
2023/09/08 09:59:57;;;;;;;;;;;22.40;99.90;;;;;;5022931;28;19956;-71
2023/09/08 10:02:23;;;;;;;;;;;22.60;99.90;;;;;;5025781;28;20011;-71
2023/09/08 10:04:50;;;;;;;;;;;22.60;99.90;;;;;;5031920;28;19921;-71
2023/09/08 10:07:18;;;;;;;;;;;22.70;99.90;;;;;;5045439;28;19984;-71
2023/09/08 10:09:44;;;;;;;;;;;22.80;99.90;;;;;;5044941;28;19988;-71
2023/09/08 10:12:15;;;;;;;;;;;22.90;99.90;;;;;;5036267;28;19921;-71
2023/09/08 10:14:44;;;;;;;;;;;23.00;99.90;;;;;;5030065;28;19921;-71
2023/09/08 10:17:13;;;;;;;;;;;23.00;99.90;;;;;;5025838;28;19989;-71
2023/09/08 10:19:41;;;;;;;;;;;23.10;99.90;;;;;;5025146;28;19984;-70
2023/09/08 10:22:12;;;;;;;;;;;23.20;99.90;;;;;;5025281;28;19922;-70
2023/09/08 10:24:39;;;;;;;;;;;23.40;99.90;;;;;;5025385;28;19922;-72
2023/09/08 10:27:08;;;;;;;;;;;23.40;99.90;;;;;;5025748;28;19980;-71
2023/09/08 10:29:35;;;;;;;;;;;23.50;99.90;;;;;;5024945;28;20001;-71
2023/09/08 10:32:04;;;;;;;;;;;23.60;99.90;;;;;;5025328;28;19989;-71
2023/09/08 10:34:31;;;;;;;;;;;23.70;99.90;;;;;;5036904;28;19988;-71
2023/09/08 10:36:58;;;;;;;;;;;23.70;99.90;;;;;;5045283;28;19984;-71
2023/09/08 10:39:29;;;;;;;;;;;23.80;99.90;;;;;;5042146;28;20279;-71
2023/09/08 10:42:10;;;;;;;;;;;23.90;99.90;;;;;;5025484;28;19921;-71
2023/09/08 10:44:39;;;;;;;;;;;24.00;99.90;;;;;;5024245;28;19981;-70
2023/09/08 10:47:07;;;;;;;;;;;24.00;99.90;;;;;;5025357;28;19957;-71
2023/09/08 10:49:36;;;;;;;;;;;24.10;99.90;;;;;;5013197;28;19940;-71
2023/09/08 10:52:06;;;;;;;;;;;24.30;99.90;;;;;;5005603;28;19980;-71
2023/09/08 10:54:42;;;;;;;;;;;24.40;99.90;;;;;;5005182;28;20257;-71
2023/09/08 10:57:13;;;;;;;;;;;24.50;99.90;;;;;;5005453;28;19957;-70
2023/09/08 10:59:40;;;;;;;;;;;24.60;99.90;;;;;;5001270;28;19996;-70
2023/09/08 11:02:08;;;;;;;;;;;24.80;99.90;;;;;;5005297;28;19922;-72
2023/09/08 11:04:35;;;;;;;;;;;24.90;99.90;;;;;;5013351;28;19921;-72
2023/09/08 11:07:02;;;;;;;;;;;25.10;99.90;;;;;;5044756;28;19921;-72
2023/09/08 11:09:28;;;;;;;;;;;25.20;99.90;;;;;;5044188;28;20209;-72
2023/09/08 11:11:56;;;;;;;;;;;25.20;99.90;;;;;;5044725;28;19992;-72
2023/09/08 11:14:26;;;;;;;;;;;25.20;99.90;;;;;;5041791;28;20279;-72
2023/09/08 11:16:53;;;;;;;;;;;25.30;99.90;;;;;;5044370;28;20281;-72
2023/09/08 11:19:21;;;;;;;;;;;25.40;99.90;;;;;;5044048;28;19921;-72
2023/09/08 11:21:49;;;;;;;;;;;25.40;99.90;;;;;;5044529;28;19993;-72
2023/09/08 11:24:18;;;;;;;;;;;25.60;99.90;;;;;;5044397;28;19971;-72
2023/09/08 11:26:46;;;;;;;;;;;25.70;99.90;;;;;;5044009;28;19992;-72
2023/09/08 11:29:13;;;;;;;;;;;25.70;99.90;;;;;;5043705;28;19928;-72
2023/09/08 11:31:39;;;;;;;;;;;25.80;99.90;;;;;;5044381;28;19921;-71
2023/09/08 11:34:06;;;;;;;;;;;25.90;99.90;;;;;;5043830;28;20309;-72
2023/09/08 11:36:36;;;;;;;;;;;26.00;99.90;;;;;;5004536;28;19922;-73
2023/09/08 11:39:05;;;;;;;;;;;26.10;99.90;;;;;;5004446;28;19964;-77
2023/09/08 11:41:32;;;;;;;;;;;26.20;99.90;;;;;;5022969;28;19921;-71
2023/09/08 11:43:58;;;;;;;;;;;26.20;99.90;;;;;;5024410;28;20163;-72
2023/09/08 11:46:25;;;;;;;;;;;26.40;99.90;;;;;;5024337;28;19989;-71
2023/09/08 11:48:52;;;;;;;;;;;26.60;99.90;;;;;;5023216;28;19929;-71
2023/09/08 11:51:23;;;;;;;;;;;26.70;99.90;;;;;;5024692;28;19988;-71
2023/09/08 11:53:51;;;;;;;;;;;26.70;99.90;;;;;;5024083;28;19957;-72
2023/09/08 11:56:18;;;;;;;;;;;26.70;99.90;;;;;;5024153;28;19988;-72
2023/09/08 11:58:45;;;;;;;;;;;26.80;99.90;;;;;;5023496;28;19993;-72
2023/09/08 12:01:11;;;;;;;;;;;26.90;99.90;;;;;;5023812;28;20256;-72
2023/09/08 12:03:51;;;;;;;;;;;27.10;99.90;;;;;;5023718;28;19921;-71
2023/09/08 12:06:18;;;;;;;;;;;27.10;99.90;;;;;;5041965;28;20051;-71
2023/09/08 12:08:45;;;;;;;;;;;27.10;99.90;;;;;;5042848;28;20235;-71
2023/09/08 12:11:13;;;;;;;;;;;27.20;99.90;;;;;;5043783;28;19920;-71
2023/09/08 12:13:47;;;;;;;;;;;27.30;99.90;;;;;;5029541;28;20000;-72
2023/09/08 12:16:21;;;;;;;;;;;27.50;99.90;;;;;;5042668;28;19927;-72
2023/09/08 12:18:50;;;;;;;;;;;27.60;99.90;;;;;;5042999;28;20116;-72
2023/09/08 12:21:16;;;;;;;;;;;27.80;99.90;;;;;;5043606;28;19956;-71
2023/09/08 12:23:50;;;;;;;;;;;27.90;99.90;;;;;;5043203;28;19921;-72
2023/09/08 12:26:18;;;;;;;;;;;28.00;99.90;;;;;;5043291;28;19963;-72
2023/09/08 12:28:44;;;;;;;;;;;28.10;99.90;;;;;;5042959;28;19951;-72
2023/09/08 12:31:13;;;;;;;;;;;28.10;99.90;;;;;;5043583;28;19989;-72
2023/09/08 12:33:40;;;;;;;;;;;28.10;99.90;;;;;;5038723;28;20000;-72
2023/09/08 12:36:11;;;;;;;;;;;28.20;99.90;;;;;;5023367;28;20288;-72
2023/09/08 12:38:38;;;;;;;;;;;28.20;99.90;;;;;;5043293;28;19925;-72
2023/09/08 12:41:04;;;;;;;;;;;28.20;99.90;;;;;;5028430;28;19925;-72
2023/09/08 12:43:32;;;;;;;;;;;28.30;99.90;;;;;;5023641;28;19921;-71
2023/09/08 12:45:59;;;;;;;;;;;28.40;99.90;;;;;;5023490;28;19921;-71
2023/09/08 12:48:25;;;;;;;;;;;28.50;99.90;;;;;;5023298;28;19928;-72
2023/09/08 12:50:52;;;;;;;;;;;28.70;99.90;;;;;;5022839;28;19930;-69
2023/09/08 12:53:19;;;;;;;;;;;28.90;99.90;;;;;;5022772;28;19963;-70
2023/09/08 12:55:46;;;;;;;;;;;29.10;99.90;;;;;;5023193;28;19953;-69
2023/09/08 12:58:13;;;;;;;;;;;29.30;99.90;;;;;;5023561;28;19980;-69
2023/09/08 13:00:41;;;;;;;;;;;29.50;99.90;;;;;;5022463;28;19984;-70
2023/09/08 13:03:07;;;;;;;;;;;29.50;99.90;;;;;;5025194;28;20158;-70
2023/09/08 13:05:34;;;;;;;;;;;29.60;99.90;;;;;;5038708;28;20145;-70
2023/09/08 13:08:05;;;;;;;;;;;29.70;99.90;;;;;;5045357;28;19928;-69
2023/09/08 13:10:32;;;;;;;;;;;29.50;99.90;;;;;;5046229;28;19921;-70
2023/09/08 13:12:59;;;;;;;;;;;29.50;99.90;;;;;;5033617;28;20173;-69
2023/09/08 13:15:27;;;;;;;;;;;29.50;99.90;;;;;;5024052;28;19992;-71
2023/09/08 13:17:56;;;;;;;;;;;29.70;99.90;;;;;;5026115;28;19957;-72
2023/09/08 13:20:23;;;;;;;;;;;29.80;99.90;;;;;;5026398;28;20035;-71
2023/09/08 13:22:50;;;;;;;;;;;29.90;99.90;;;;;;5026709;28;19929;-71
2023/09/08 13:25:16;;;;;;;;;;;30.00;99.90;;;;;;5026688;28;20114;-72
2023/09/08 13:27:43;;;;;;;;;;;30.00;99.90;;;;;;5026753;28;19927;-72
2023/09/08 13:30:10;;;;;;;;;;;30.20;99.90;;;;;;5026032;28;19921;-72
2023/09/08 13:32:37;;;;;;;;;;;30.10;99.80;;;;;;5026520;28;19921;-69
2023/09/08 13:35:05;;;;;;;;;;;30.00;99.90;;;;;;5027324;28;19921;-69
2023/09/08 13:37:34;;;;;;;;;;;30.10;99.90;;;;;;5035918;28;20167;-69
2023/09/08 13:40:00;;;;;;;;;;;30.10;99.90;;;;;;5039541;28;19921;-69
2023/09/08 13:42:27;;;;;;;;;;;30.10;99.80;;;;;;5025795;28;19929;-69
2023/09/08 13:44:55;;;;;;;;;;;30.20;99.90;;;;;;5026073;28;20154;-70
2023/09/08 13:47:21;;;;;;;;;;;30.10;99.90;;;;;;5025974;28;20209;-69
2023/09/08 13:49:48;;;;;;;;;;;30.10;99.90;;;;;;5025253;28;19992;-70
2023/09/08 13:52:16;;;;;;;;;;;30.30;99.90;;;;;;5026140;28;19989;-70
2023/09/08 13:54:42;;;;;;;;;;;30.40;99.90;;;;;;5025741;28;19957;-69
2023/09/08 13:57:09;;;;;;;;;;;30.60;99.90;;;;;;5025747;28;19980;-70
2023/09/08 13:59:36;;;;;;;;;;;30.80;99.90;;;;;;5025463;28;19921;-70
2023/09/08 14:02:03;;;;;;;;;;;31.10;99.90;;;;;;5015481;28;20205;-70
2023/09/08 14:04:30;;;;;;;;;;;31.30;99.90;;;;;;5012974;28;19921;-69
2023/09/08 14:06:56;;;;;;;;;;;31.50;99.50;;;;;;5045251;28;19921;-70
2023/09/08 14:09:26;;;;;;;;;;;31.60;98.10;;;;;;5029583;28;19978;-69
2023/09/08 14:11:52;;;;;;;;;;;31.70;98.10;;;;;;5024879;28;19921;-69
2023/09/08 14:14:19;;;;;;;;;;;31.70;98.60;;;;;;5025048;28;20230;-69
2023/09/08 14:16:46;;;;;;;;;;;31.80;97.30;;;;;;5024194;28;19984;-69
2023/09/08 14:19:12;;;;;;;;;;;31.90;97.20;;;;;;5025080;28;19927;-70
2023/09/08 14:21:39;;;;;;;;;;;32.00;98.00;;;;;;5025377;28;19959;-70
2023/09/08 14:24:06;;;;;;;;;;;32.10;96.60;;;;;;5024798;28;19921;-70
2023/09/08 14:26:34;;;;;;;;;;;32.20;96.00;;;;;;5025636;28;20000;-69
2023/09/08 14:29:01;;;;;;;;;;;32.30;95.90;;;;;;5024785;28;19925;-70
2023/09/08 14:31:28;;;;;;;;;;;32.20;97.30;;;;;;5025473;28;20472;-70
2023/09/08 14:33:55;;;;;;;;;;;32.10;95.10;;;;;;5023140;28;19926;-71
2023/09/08 14:36:22;;;;;;;;;;;32.00;95.60;;;;;;5025400;28;19928;-70
2023/09/08 14:38:49;;;;;;;;;;;32.00;95.20;;;;;;5024812;28;19921;-70
2023/09/08 14:41:16;;;;;;;;;;;31.90;94.10;;;;;;5025199;28;19921;-69
2023/09/08 14:43:44;;;;;;;;;;;31.60;94.30;;;;;;5025004;28;19957;-70
2023/09/08 14:46:10;;;;;;;;;;;31.60;95.80;;;;;;5025189;28;19984;-70
2023/09/08 14:48:37;;;;;;;;;;;31.60;94.70;;;;;;5025016;28;19953;-70
2023/09/08 14:51:04;;;;;;;;;;;31.60;92.90;;;;;;5025055;28;19988;-69
2023/09/08 14:53:31;;;;;;;;;;;31.60;94.10;;;;;;5024824;28;20205;-69
2023/09/08 14:55:58;;;;;;;;;;;31.70;94.40;;;;;;5024985;28;19925;-68
2023/09/08 14:58:25;;;;;;;;;;;31.70;94.30;;;;;;5025024;28;19921;-70
2023/09/08 15:00:53;;;;;;;;;;;31.90;93.90;;;;;;5024336;28;20120;-70
2023/09/08 15:03:20;;;;;;;;;;;32.00;94.40;;;;;;5024746;28;19985;-69
2023/09/08 15:05:46;;;;;;;;;;;32.00;93.70;;;;;;5024999;28;19925;-71
2023/09/08 15:08:13;;;;;;;;;;;32.10;94.00;;;;;;5024534;28;19921;-70
2023/09/08 15:10:40;;;;;;;;;;;32.10;93.20;;;;;;5024415;28;20267;-69
2023/09/08 15:13:06;;;;;;;;;;;32.00;92.50;;;;;;5046511;23;19983;-69
2023/09/08 15:15:33;;;;;;;;;;;32.10;93.00;;;;;;5104519;28;19979;-69
2023/09/08 15:18:01;;;;;;;;;;;32.10;93.70;;;;;;5088377;28;20155;-69
2023/09/08 15:20:27;;;;;;;;;;;32.10;92.90;;;;;;5084242;28;19988;-70
2023/09/08 15:22:54;;;;;;;;;;;32.10;91.90;;;;;;5080291;28;19999;-70
2023/09/08 15:25:23;;;;;;;;;;;32.10;92.90;;;;;;5062873;28;19983;-70
2023/09/08 15:27:49;;;;;;;;;;;32.10;92.30;;;;;;5064406;28;19983;-71
2023/09/08 15:30:16;;;;;;;;;;;32.10;92.00;;;;;;5063907;28;19928;-70
2023/09/08 15:32:45;;;;;;;;;;;31.90;92.50;;;;;;5064221;28;20115;-70
2023/09/08 15:35:12;;;;;;;;;;;31.80;93.70;;;;;;5063223;28;19921;-70
2023/09/08 15:37:39;;;;;;;;;;;31.80;94.60;;;;;;5064105;28;19984;-70
2023/09/08 15:40:13;;;;;;;;;;;31.80;94.20;;;;;;5063875;28;19979;-70
2023/09/08 15:42:40;;;;;;;;;;;31.70;93.00;;;;;;5064144;28;19920;-70
2023/09/08 15:45:07;;;;;;;;;;;31.70;92.60;;;;;;5063783;28;19988;-70
2023/09/08 15:47:33;;;;;;;;;;;31.70;92.60;;;;;;5063963;28;20288;-69
2023/09/08 15:50:00;;;;;;;;;;;31.60;92.50;;;;;;5063797;28;19921;-71
2023/09/08 15:52:28;;;;;;;;;;;31.60;92.20;;;;;;5063587;28;19927;-70
2023/09/08 15:54:55;;;;;;;;;;;31.60;92.40;;;;;;5063902;28;19987;-70
2023/09/08 15:57:21;;;;;;;;;;;31.60;93.50;;;;;;5063403;28;20196;-70
2023/09/08 15:59:48;;;;;;;;;;;31.50;93.30;;;;;;5063488;28;19966;-70
2023/09/08 16:02:15;;;;;;;;;;;31.50;93.60;;;;;;5063865;28;19988;-71
2023/09/08 16:04:41;;;;;;;;;;;31.30;93.50;;;;;;5063441;28;20267;-70
2023/09/08 16:07:08;;;;;;;;;;;31.30;95.10;;;;;;5063841;28;19952;-70
2023/09/08 16:09:36;;;;;;;;;;;31.30;93.90;;;;;;5063492;28;19958;-71
2023/09/08 16:12:02;;;;;;;;;;;31.20;92.60;;;;;;5063910;28;19952;-71
2023/09/08 16:14:30;;;;;;;;;;;31.20;93.10;;;;;;5063406;28;19927;-71